KMRJ 061015Z AUTO 00000KT 3SM BR CLR 10/10 A3000 RMK AO2
From batch tds/metars/production/2022/10/6/h10_m24_metars.cache.csv.gz
Observed at (about 1 hour ago)
Identifier KMRJ
KMRJ 060955Z AUTO 25003KT 7SM CLR 10/10 A3001 RMK AO2
From batch tds/metars/production/2022/10/6/h09_m56_metars.cache.csv.gz
Observed at (about 1 hour ago)
Identifier KMRJ
KMRJ 060915Z AUTO 00000KT 10SM CLR 10/10 A3001 RMK AO2
From batch tds/metars/production/2022/10/6/h09_m29_metars.cache.csv.gz
Observed at (about 2 hours ago)
Identifier KMRJ
KMRJ 060835Z AUTO 00000KT 10SM CLR 11/11 A3001 RMK AO2
From batch tds/metars/production/2022/10/6/h08_m51_metars.cache.csv.gz
Observed at (about 3 hours ago)
Identifier KMRJ
KMRJ 060815Z AUTO 23003KT 10SM CLR 11/11 A3001 RMK AO2
From batch tds/metars/production/2022/10/6/h08_m23_metars.cache.csv.gz
Observed at (about 3 hours ago)
Identifier KMRJ
KMRJ 060735Z AUTO 00000KT 10SM CLR 11/11 A3003 RMK AO2
From batch tds/metars/production/2022/10/6/h07_m52_metars.cache.csv.gz
Observed at (about 4 hours ago)
Identifier KMRJ
KMRJ 060715Z AUTO 00000KT 10SM CLR 11/11 A3003 RMK AO2
From batch tds/metars/production/2022/10/6/h07_m27_metars.cache.csv.gz
Observed at (about 4 hours ago)
Identifier KMRJ
KMRJ 060635Z AUTO 00000KT 10SM CLR 12/11 A3002 RMK AO2
From batch tds/metars/production/2022/10/6/h06_m49_metars.cache.csv.gz
Observed at (about 5 hours ago)
Identifier KMRJ
KMRJ 060615Z AUTO 00000KT 10SM CLR 11/11 A3003 RMK AO2
From batch tds/metars/production/2022/10/6/h06_m20_metars.cache.csv.gz
Observed at (about 5 hours ago)
Identifier KMRJ
KMRJ 060555Z AUTO 00000KT 10SM CLR 12/11 A3003 RMK AO2
From batch tds/metars/production/2022/10/6/h05_m57_metars.cache.csv.gz
Observed at (about 5 hours ago)
Identifier KMRJ
KMRJ 060515Z AUTO 00000KT 10SM CLR 13/11 A3003 RMK AO2
From batch tds/metars/production/2022/10/6/h05_m21_metars.cache.csv.gz
Observed at (about 6 hours ago)
Identifier KMRJ
KMRJ 060435Z AUTO 00000KT 10SM BKN070 13/11 A3004 RMK AO2
From batch tds/metars/production/2022/10/6/h04_m54_metars.cache.csv.gz
Observed at (about 7 hours ago)
Identifier KMRJ
KMRJ 060415Z AUTO 00000KT 10SM CLR 12/11 A3004 RMK AO2
From batch tds/metars/production/2022/10/6/h04_m25_metars.cache.csv.gz
Observed at (about 7 hours ago)
Identifier KMRJ
KMRJ 060335Z AUTO 23003KT 10SM CLR 13/11 A3004 RMK AO2
From batch tds/metars/production/2022/10/6/h03_m51_metars.cache.csv.gz
Observed at (about 8 hours ago)
Identifier KMRJ
KMRJ 060315Z AUTO 25003KT 10SM CLR 12/11 A3004 RMK AO2
From batch tds/metars/production/2022/10/6/h03_m20_metars.cache.csv.gz
Observed at (about 8 hours ago)
Identifier KMRJ
KMRJ 060135Z AUTO 00000KT 10SM BKN090 15/10 A3005 RMK AO2
From batch tds/metars/production/2022/10/6/h01_m51_metars.cache.csv.gz
Observed at (about 10 hours ago)
Identifier KMRJ
KMRJ 060055Z AUTO 00000KT 10SM OVC100 16/10 A3005 RMK AO2
From batch tds/metars/production/2022/10/6/h00_m59_metars.cache.csv.gz
Observed at (about 10 hours ago)
Identifier KMRJ
KMRJ 052355Z AUTO 00000KT 10SM OVC075 16/10 A3006 RMK AO2
From batch tds/metars/production/2022/10/5/h23_m58_metars.cache.csv.gz
Observed at (about 11 hours ago)
Identifier KMRJ
KMRJ 052215Z AUTO 00000KT 10SM OVC095 17/10 A3005 RMK AO2
From batch tds/metars/production/2022/10/5/h22_m23_metars.cache.csv.gz
Observed at (about 13 hours ago)
Identifier KMRJ
KMRJ 052155Z AUTO 29003KT 10SM OVC095 17/10 A3006 RMK AO2
From batch tds/metars/production/2022/10/5/h21_m56_metars.cache.csv.gz
Observed at (about 13 hours ago)
Identifier KMRJ
KMRJ 052055Z AUTO 24003KT 10SM OVC080 19/07 A3006 RMK AO2
From batch tds/metars/production/2022/10/5/h20_m57_metars.cache.csv.gz
Observed at (about 14 hours ago)
Identifier KMRJ
KMRJ 051935Z AUTO 21006KT 10SM OVC070 22/06 A3006 RMK AO2
From batch tds/metars/production/2022/10/5/h19_m49_metars.cache.csv.gz
Observed at (about 16 hours ago)
Identifier KMRJ
KMRJ 051815Z AUTO 21005KT 10SM SCT100 22/07 A3007 RMK AO2
From batch tds/metars/production/2022/10/5/h18_m26_metars.cache.csv.gz
Observed at (about 17 hours ago)
Identifier KMRJ
KMRJ 051735Z AUTO 00000KT 10SM CLR 22/08 A3008 RMK AO2
From batch tds/metars/production/2022/10/5/h17_m55_metars.cache.csv.gz
Observed at (about 18 hours ago)
Identifier KMRJ
KMRJ 051715Z AUTO 23003KT 10SM CLR 21/08 A3008 RMK AO2
From batch tds/metars/production/2022/10/5/h17_m26_metars.cache.csv.gz
Observed at (about 18 hours ago)
Identifier KMRJ
KMRJ 051655Z AUTO 22003KT 10SM CLR 20/07 A3009 RMK AO2
From batch tds/metars/production/2022/10/5/h16_m57_metars.cache.csv.gz
Observed at (about 18 hours ago)
Identifier KMRJ
KMRJ 051615Z AUTO 18003KT 10SM CLR 18/06 A3009 RMK AO2
From batch tds/metars/production/2022/10/5/h16_m21_metars.cache.csv.gz
Observed at (about 19 hours ago)
Identifier KMRJ
KMRJ 051535Z AUTO 00000KT 10SM CLR 16/06 A3010 RMK AO2
From batch tds/metars/production/2022/10/5/h15_m53_metars.cache.csv.gz
Observed at (about 20 hours ago)
Identifier KMRJ
KMRJ 051515Z AUTO 21003KT 10SM CLR 15/05 A3011 RMK AO2
From batch tds/metars/production/2022/10/5/h15_m24_metars.cache.csv.gz
Observed at (about 20 hours ago)
Identifier KMRJ
KMRJ 051435Z AUTO 16003KT 10SM CLR 13/05 A3011 RMK AO2
From batch tds/metars/production/2022/10/5/h14_m58_metars.cache.csv.gz
Observed at (about 21 hours ago)
Identifier KMRJ
KMRJ 051415Z AUTO 17004KT 10SM CLR 12/04 A3012 RMK AO2
From batch tds/metars/production/2022/10/5/h14_m27_metars.cache.csv.gz
Observed at (about 21 hours ago)
Identifier KMRJ
KMRJ 051355Z AUTO 17003KT 10SM CLR 11/04 A3011 RMK AO2
From batch tds/metars/production/2022/10/5/h13_m57_metars.cache.csv.gz
Observed at (about 21 hours ago)
Identifier KMRJ
KMRJ 051315Z AUTO 15003KT 10SM CLR 10/04 A3011 RMK AO2
From batch tds/metars/production/2022/10/5/h13_m28_metars.cache.csv.gz
Observed at (about 22 hours ago)
Identifier KMRJ
KMRJ 051255Z AUTO 16003KT 10SM CLR 09/03 A3012 RMK AO2
From batch tds/metars/production/2022/10/5/h12_m57_metars.cache.csv.gz
Observed at (about 22 hours ago)
Identifier KMRJ
KMRJ 051215Z AUTO 15005KT 10SM CLR 07/03 A3011 RMK AO2
From batch tds/metars/production/2022/10/5/h12_m29_metars.cache.csv.gz
Observed at (about 23 hours ago)
Identifier KMRJ
KMRJ 051155Z AUTO 17005KT 10SM CLR 08/03 A3011 RMK AO2
From batch tds/metars/production/2022/10/5/h11_m56_metars.cache.csv.gz
Observed at (about 23 hours ago)
Identifier KMRJ
KMRJ 051115Z AUTO 19005KT 10SM CLR 10/02 A3011 RMK AO2
From batch tds/metars/production/2022/10/5/h11_m28_metars.cache.csv.gz
Observed at (about 24 hours ago)
Identifier KMRJ
talk